sensor_id;sensor_type;location;lat;lon;timestamp;P1;durP1;ratioP1;P2;durP2;ratioP2
82464;SDS011;72087;53.178;8.738;2024-03-02T00:08:33;0.82;;;0.47;;
82464;SDS011;72087;53.178;8.738;2024-03-02T00:28:34;0.32;;;0.32;;
82464;SDS011;72087;53.178;8.738;2024-03-02T00:48:36;0.55;;;0.40;;
82464;SDS011;72087;53.178;8.738;2024-03-02T01:08:37;0.75;;;0.50;;
82464;SDS011;72087;53.178;8.738;2024-03-02T01:28:38;0.52;;;0.52;;
82464;SDS011;72087;53.178;8.738;2024-03-02T01:48:38;0.63;;;0.60;;
82464;SDS011;72087;53.178;8.738;2024-03-02T02:08:39;0.57;;;0.50;;
82464;SDS011;72087;53.178;8.738;2024-03-02T02:28:39;0.83;;;0.47;;
82464;SDS011;72087;53.178;8.738;2024-03-02T02:48:46;0.80;;;0.50;;
82464;SDS011;72087;53.178;8.738;2024-03-02T03:08:47;0.68;;;0.55;;
82464;SDS011;72087;53.178;8.738;2024-03-02T03:28:47;1.10;;;0.80;;
82464;SDS011;72087;53.178;8.738;2024-03-02T03:48:48;0.77;;;0.60;;
82464;SDS011;72087;53.178;8.738;2024-03-02T04:08:48;0.57;;;0.43;;
82464;SDS011;72087;53.178;8.738;2024-03-02T04:28:49;1.00;;;0.70;;
82464;SDS011;72087;53.178;8.738;2024-03-02T04:48:49;0.80;;;0.60;;
82464;SDS011;72087;53.178;8.738;2024-03-02T05:08:55;1.10;;;0.60;;
82464;SDS011;72087;53.178;8.738;2024-03-02T05:28:56;0.70;;;0.47;;
82464;SDS011;72087;53.178;8.738;2024-03-02T05:48:57;1.03;;;0.60;;
82464;SDS011;72087;53.178;8.738;2024-03-02T06:08:58;0.88;;;0.60;;
82464;SDS011;72087;53.178;8.738;2024-03-02T06:28:58;1.85;;;0.50;;
82464;SDS011;72087;53.178;8.738;2024-03-02T06:48:59;0.68;;;0.45;;
82464;SDS011;72087;53.178;8.738;2024-03-02T07:08:59;0.57;;;0.50;;
82464;SDS011;72087;53.178;8.738;2024-03-02T07:29:00;0.50;;;0.40;;
82464;SDS011;72087;53.178;8.738;2024-03-02T07:49:01;0.90;;;0.60;;
82464;SDS011;72087;53.178;8.738;2024-03-02T08:09:01;0.60;;;0.50;;
82464;SDS011;72087;53.178;8.738;2024-03-02T08:29:09;0.55;;;0.40;;
82464;SDS011;72087;53.178;8.738;2024-03-02T08:49:10;0.63;;;0.32;;
82464;SDS011;72087;53.178;8.738;2024-03-02T09:09:10;0.85;;;0.25;;
82464;SDS011;72087;53.178;8.738;2024-03-02T09:29:11;0.60;;;0.40;;
82464;SDS011;72087;53.178;8.738;2024-03-02T09:49:12;1.02;;;0.50;;
82464;SDS011;72087;53.178;8.738;2024-03-02T10:09:13;0.88;;;0.65;;
82464;SDS011;72087;53.178;8.738;2024-03-02T10:29:29;0.75;;;0.35;;
82464;SDS011;72087;53.178;8.738;2024-03-02T10:49:30;0.73;;;0.60;;
82464;SDS011;72087;53.178;8.738;2024-03-02T11:09:35;0.52;;;0.38;;
82464;SDS011;72087;53.178;8.738;2024-03-02T11:49:41;0.30;;;0.30;;
82464;SDS011;72087;53.178;8.738;2024-03-02T12:09:43;0.22;;;0.22;;
82464;SDS011;72087;53.178;8.738;2024-03-02T12:29:43;0.63;;;0.40;;
82464;SDS011;72087;53.178;8.738;2024-03-02T12:49:44;0.22;;;0.22;;
82464;SDS011;72087;53.178;8.738;2024-03-02T13:09:45;0.20;;;0.20;;
82464;SDS011;72087;53.178;8.738;2024-03-02T13:29:47;0.73;;;0.50;;
82464;SDS011;72087;53.178;8.738;2024-03-02T13:49:48;0.65;;;0.45;;
82464;SDS011;72087;53.178;8.738;2024-03-02T14:09:49;0.40;;;0.35;;
82464;SDS011;72087;53.178;8.738;2024-03-02T14:29:49;0.60;;;0.40;;
82464;SDS011;72087;53.178;8.738;2024-03-02T14:49:50;0.15;;;0.15;;
82464;SDS011;72087;53.178;8.738;2024-03-02T15:09:50;0.20;;;0.20;;
82464;SDS011;72087;53.178;8.738;2024-03-02T15:29:51;0.10;;;0.10;;
82464;SDS011;72087;53.178;8.738;2024-03-02T15:49:52;0.40;;;0.22;;
82464;SDS011;72087;53.178;8.738;2024-03-02T16:09:52;0.50;;;0.40;;
82464;SDS011;72087;53.178;8.738;2024-03-02T16:29:53;0.20;;;0.20;;
82464;SDS011;72087;53.178;8.738;2024-03-02T16:49:54;0.20;;;0.20;;
82464;SDS011;72087;53.178;8.738;2024-03-02T17:09:55;0.20;;;0.20;;
82464;SDS011;72087;53.178;8.738;2024-03-02T17:29:57;0.35;;;0.35;;
82464;SDS011;72087;53.178;8.738;2024-03-02T17:49:58;0.30;;;0.22;;
82464;SDS011;72087;53.178;8.738;2024-03-02T18:30:01;0.22;;;0.20;;
82464;SDS011;72087;53.178;8.738;2024-03-02T18:50:05;0.17;;;0.15;;
82464;SDS011;72087;53.178;8.738;2024-03-02T19:10:08;0.30;;;0.20;;
82464;SDS011;72087;53.178;8.738;2024-03-02T19:30:10;0.20;;;0.17;;
82464;SDS011;72087;53.178;8.738;2024-03-02T19:50:11;0.28;;;0.28;;
82464;SDS011;72087;53.178;8.738;2024-03-02T20:10:14;0.63;;;0.20;;
82464;SDS011;72087;53.178;8.738;2024-03-02T20:30:15;0.40;;;0.25;;
82464;SDS011;72087;53.178;8.738;2024-03-02T20:50:15;0.20;;;0.10;;
82464;SDS011;72087;53.178;8.738;2024-03-02T21:10:16;0.35;;;0.20;;
82464;SDS011;72087;53.178;8.738;2024-03-02T21:30:16;0.40;;;0.25;;
82464;SDS011;72087;53.178;8.738;2024-03-02T21:50:18;1.15;;;0.40;;
82464;SDS011;72087;53.178;8.738;2024-03-02T22:10:18;0.77;;;0.50;;
82464;SDS011;72087;53.178;8.738;2024-03-02T22:30:19;0.57;;;0.40;;
82464;SDS011;72087;53.178;8.738;2024-03-02T22:50:21;0.70;;;0.40;;
82464;SDS011;72087;53.178;8.738;2024-03-02T23:10:22;0.57;;;0.50;;
82464;SDS011;72087;53.178;8.738;2024-03-02T23:30:22;0.70;;;0.50;;
82464;SDS011;72087;53.178;8.738;2024-03-02T23:50:24;0.95;;;0.70;;
